createdAt,value
2019-04-04T04:02:05.464Z,0
2019-04-04T04:05:40.802Z,0
2019-04-04T04:09:09.139Z,0
2019-04-04T04:12:42.555Z,0
2019-04-04T04:16:08.779Z,0
2019-04-04T04:19:38.792Z,0
2019-04-04T04:23:08.628Z,0
2019-04-04T04:26:41.842Z,0
2019-04-04T04:30:11.361Z,5.625
2019-04-04T04:33:41.225Z,5.625
2019-04-04T04:37:11.267Z,5.625
2019-04-04T04:40:46.800Z,11.25
2019-04-04T04:44:12.995Z,16.875
2019-04-04T04:47:43.689Z,22.5
2019-04-04T04:51:15.504Z,22.5
2019-04-04T04:54:46.059Z,28.125
2019-04-04T04:58:16.948Z,33.75
2019-04-04T05:01:50.048Z,39.375
2019-04-04T05:05:16.668Z,45
2019-04-04T05:08:46.526Z,50.625
2019-04-04T05:12:16.384Z,56.25
2019-04-04T05:15:47.222Z,61.875
2019-04-04T05:19:18.963Z,67.5
2019-04-04T05:22:47.967Z,73.125
2019-04-04T05:26:17.769Z,78.75
2019-04-04T05:29:48.597Z,84.375
2019-04-04T05:33:19.470Z,90
2019-04-04T05:36:50.277Z,90
2019-04-04T05:40:23.105Z,95.625
2019-04-04T05:43:50.007Z,101.25
2019-04-04T05:47:22.853Z,106.875
2019-04-04T05:50:49.828Z,106.875
2019-04-04T05:54:19.668Z,112.5
2019-04-04T05:57:51.618Z,118.125
2019-04-04T06:01:21.374Z,123.75
2019-04-04T06:04:55.309Z,123.75
2019-04-04T06:08:24.028Z,129.375
2019-04-04T06:11:55.874Z,129.375
2019-04-04T06:15:25.720Z,135
2019-04-04T06:18:56.572Z,140.625
2019-04-04T06:22:26.444Z,140.625
2019-04-04T06:25:56.280Z,146.25
2019-04-04T06:29:26.152Z,151.875
2019-04-04T06:32:55.967Z,151.875
2019-04-04T06:36:26.808Z,157.5
2019-04-04T06:39:59.664Z,163.125
2019-04-04T06:43:29.523Z,163.125
2019-04-04T06:47:01.863Z,168.75
2019-04-04T06:50:29.237Z,168.75
2019-04-04T06:54:00.104Z,174.375
2019-04-04T06:57:29.934Z,185.625
2019-04-04T07:01:00.839Z,191.25
2019-04-04T07:04:35.975Z,196.875
2019-04-04T07:08:03.559Z,196.875
2019-04-04T07:11:35.875Z,202.5
2019-04-04T07:15:05.282Z,208.125
2019-04-04T07:18:36.148Z,208.125
2019-04-04T07:22:08.020Z,208.125
2019-04-04T07:25:40.873Z,202.5
2019-04-04T07:29:10.739Z,208.125
2019-04-04T07:32:42.597Z,208.125
2019-04-04T07:36:12.482Z,213.75
2019-04-04T07:39:43.404Z,213.75
2019-04-04T07:43:14.253Z,213.75
2019-04-04T07:46:48.080Z,219.375
2019-04-04T07:50:17.986Z,219.375
2019-04-04T07:53:47.848Z,219.375
2019-04-04T07:57:20.238Z,219.375
2019-04-04T08:00:49.550Z,219.375
2019-04-04T08:04:19.418Z,230.625
2019-04-04T08:07:49.319Z,230.625
2019-04-04T08:11:19.185Z,230.625
2019-04-04T08:14:49.045Z,230.625
2019-04-04T08:18:18.904Z,236.25
2019-04-04T08:21:48.794Z,236.25
2019-04-04T08:25:18.656Z,236.25
2019-04-04T08:28:48.569Z,241.875
2019-04-04T08:32:18.405Z,241.875
2019-04-04T08:35:48.292Z,247.5
2019-04-04T08:39:19.174Z,247.5
2019-04-04T08:42:49.050Z,253.125
2019-04-04T08:46:20.926Z,253.125
2019-04-04T08:49:50.803Z,258.75
2019-04-04T08:53:20.672Z,258.75
2019-04-04T08:56:50.549Z,270
2019-04-04T09:00:20.439Z,270
2019-04-04T09:03:50.272Z,275.625
2019-04-04T09:07:20.135Z,292.5
2019-04-04T09:10:50.029Z,303.75
2019-04-04T09:14:19.867Z,315
2019-04-04T09:17:49.738Z,348.75
2019-04-04T09:21:20.626Z,348.75
2019-04-04T09:24:50.482Z,388.125
2019-04-04T09:28:20.347Z,416.25
2019-04-04T09:31:50.254Z,438.75
2019-04-04T09:35:20.124Z,455.625
2019-04-04T09:38:49.977Z,466.875
2019-04-04T09:42:19.846Z,495
2019-04-04T09:45:49.699Z,495
2019-04-04T09:49:19.542Z,511.875
2019-04-04T09:52:49.414Z,517.5
2019-04-04T09:56:19.267Z,528.75
2019-04-04T09:59:49.109Z,528.75
2019-04-04T10:03:19.114Z,523.125
2019-04-04T10:06:48.967Z,534.375
2019-04-04T10:10:18.822Z,528.75
2019-04-04T10:13:48.650Z,556.875
2019-04-04T10:17:18.522Z,506.25
2019-04-04T10:20:48.363Z,585
2019-04-04T10:24:18.238Z,601.875
2019-04-04T10:27:48.087Z,556.875
2019-04-04T10:31:18.939Z,545.625
2019-04-04T10:34:48.767Z,528.75
2019-04-04T10:38:18.619Z,551.25
2019-04-04T10:41:48.477Z,579.375
2019-04-04T10:45:18.347Z,540
2019-04-04T10:48:48.214Z,511.875
2019-04-04T10:52:18.098Z,528.75
2019-04-04T10:55:47.952Z,540
2019-04-04T10:59:17.811Z,765
2019-04-04T11:02:47.671Z,613.125
2019-04-04T11:06:17.526Z,669.375
2019-04-04T11:09:47.393Z,877.5
2019-04-04T11:13:18.233Z,1057.5
2019-04-04T11:16:49.230Z,1153.125
2019-04-04T11:20:19.064Z,1080
2019-04-04T11:23:48.933Z,1130.625
2019-04-04T11:27:20.762Z,708.75
2019-04-04T11:30:50.655Z,928.125
2019-04-04T11:34:20.486Z,1192.5
2019-04-04T11:37:50.370Z,838.125
2019-04-04T11:41:20.275Z,1648.125
2019-04-04T11:44:50.094Z,1794.375
2019-04-04T11:48:19.970Z,1681.875
2019-04-04T11:51:49.885Z,1535.625
2019-04-04T11:55:19.778Z,1575
2019-04-04T11:58:49.662Z,2041.875
2019-04-04T12:02:19.512Z,894.375
2019-04-04T12:05:49.373Z,984.375
2019-04-04T12:09:19.266Z,1215
2019-04-04T12:12:49.195Z,1248.75
2019-04-04T12:16:19.039Z,1175.625
2019-04-04T12:19:49.924Z,1828.125
2019-04-04T12:23:19.796Z,2098.125
2019-04-04T12:26:50.687Z,2632.5
2019-04-04T12:30:21.522Z,2182.5
2019-04-04T12:33:51.425Z,2036.25
2019-04-04T12:37:21.297Z,1496.25
2019-04-04T12:40:51.183Z,1608.75
2019-04-04T12:44:21.106Z,2756.25
2019-04-04T12:47:50.969Z,2745
2019-04-04T12:51:20.860Z,2750.625
2019-04-04T12:54:50.752Z,2587.5
2019-04-04T12:58:20.684Z,2463.75
2019-04-04T13:01:50.597Z,2193.75
2019-04-04T13:05:20.538Z,2199.375
2019-04-04T13:08:50.424Z,2109.375
2019-04-04T13:12:20.331Z,1485
2019-04-04T13:15:50.224Z,1479.375
2019-04-04T13:19:20.126Z,2790
2019-04-04T13:22:51.034Z,714.375
2019-04-04T13:26:21.019Z,2446.875
2019-04-04T13:29:50.776Z,1642.5
2019-04-04T13:33:22.603Z,1861.875
2019-04-04T13:36:51.571Z,1558.125
2019-04-04T13:40:21.487Z,3088.125
2019-04-04T13:43:54.450Z,3172.5
2019-04-04T13:47:24.341Z,1749.375
2019-04-04T13:50:54.254Z,2812.5
2019-04-04T13:54:24.198Z,1524.375
2019-04-04T13:57:54.060Z,2351.25
2019-04-04T14:01:25.426Z,1220.625
2019-04-04T14:05:08.850Z,641.25
2019-04-04T14:08:27.801Z,568.125
2019-04-04T14:11:58.287Z,562.5
2019-04-04T14:15:28.123Z,680.625
2019-04-04T14:18:58.092Z,2874.375
2019-04-04T14:22:27.922Z,1935
2019-04-04T14:25:59.879Z,2216.25
2019-04-04T14:29:30.577Z,2227.5
2019-04-04T14:33:01.252Z,2452.5
2019-04-04T14:36:31.105Z,2936.25
2019-04-04T14:40:01.953Z,2801.25
2019-04-04T14:43:32.777Z,1231.875
2019-04-04T14:47:02.629Z,601.875
2019-04-04T14:50:32.467Z,2205
2019-04-04T14:54:02.279Z,2503.125
2019-04-04T14:57:32.250Z,2475
2019-04-04T15:01:02.100Z,2030.625
2019-04-04T15:04:32.003Z,2480.625
2019-04-04T15:08:02.834Z,2334.375
2019-04-04T15:11:32.691Z,2340
2019-04-04T15:15:02.540Z,1996.875
2019-04-04T15:18:32.485Z,2103.75
2019-04-04T15:22:02.410Z,1603.125
2019-04-04T15:25:33.191Z,1198.125
2019-04-04T15:29:03.032Z,1164.375
2019-04-04T15:32:32.952Z,1355.625
2019-04-04T15:36:02.803Z,1620
2019-04-04T15:39:33.207Z,1569.375
2019-04-04T15:43:03.079Z,1333.125
2019-04-04T15:46:33.133Z,1743.75
2019-04-04T15:50:02.974Z,1648.125
2019-04-04T15:53:32.832Z,1614.375
2019-04-04T15:57:02.699Z,1485
2019-04-04T16:00:32.559Z,1170
2019-04-04T16:04:02.426Z,1057.5
2019-04-04T16:07:32.389Z,500.625
2019-04-04T16:11:03.241Z,292.5
2019-04-04T16:14:33.113Z,337.5
2019-04-04T16:18:03.976Z,573.75
2019-04-04T16:21:33.854Z,500.625
2019-04-04T16:25:03.701Z,607.5
2019-04-04T16:28:35.109Z,275.625
2019-04-04T16:34:52.956Z,247.5
2019-04-04T16:38:22.868Z,225
2019-04-04T16:42:01.450Z,196.875
2019-04-04T16:45:22.343Z,168.75
2019-04-04T16:48:50.227Z,146.25
2019-04-04T16:52:18.108Z,140.625
2019-04-04T16:55:45.971Z,140.625
2019-04-04T16:59:13.824Z,123.75
2019-04-04T17:02:41.680Z,112.5
2019-04-04T17:06:09.512Z,95.625
2019-04-04T17:09:37.351Z,84.375
2019-04-04T17:13:05.200Z,67.5
2019-04-04T17:16:33.013Z,56.25
2019-04-04T17:20:01.846Z,50.625
2019-04-04T17:23:29.687Z,45
2019-04-04T17:26:58.561Z,39.375
2019-04-04T17:30:26.530Z,33.75
2019-04-04T17:33:54.231Z,28.125
2019-04-04T17:37:25.218Z,22.5
2019-04-04T17:40:52.957Z,16.875
2019-04-04T17:44:20.761Z,11.25
2019-04-04T17:47:48.857Z,11.25
2019-04-04T17:51:16.831Z,5.625
2019-04-04T17:54:44.290Z,5.625
2019-04-04T17:58:12.132Z,0
2019-04-04T18:01:39.987Z,0
2019-04-04T18:05:07.893Z,0
2019-04-04T18:08:35.749Z,0
2019-04-04T18:12:03.611Z,0
2019-04-04T18:15:31.464Z,0
2019-04-04T18:18:59.333Z,0
2019-04-04T18:22:27.169Z,0
2019-04-04T18:25:55.170Z,0
2019-04-04T18:29:22.983Z,0
2019-04-04T18:32:50.839Z,0
2019-04-04T18:36:18.666Z,0
2019-04-04T18:39:47.520Z,0
2019-04-04T18:43:15.400Z,0
2019-04-04T18:46:43.236Z,0
2019-04-04T18:50:11.094Z,0
2019-04-04T18:53:38.993Z,0
2019-04-04T18:57:06.857Z,0
2019-04-04T19:00:35.953Z,0
2019-04-04T19:04:04.829Z,0
2019-04-04T19:07:39.386Z,0
2019-04-04T19:11:06.491Z,0
2019-04-04T19:14:34.433Z,0
2019-04-04T19:18:02.315Z,0
2019-04-04T19:21:31.089Z,0
2019-04-04T19:24:59.637Z,0
2019-04-04T19:28:28.216Z,0
2019-04-04T19:31:57.572Z,0
2019-04-04T19:35:26.681Z,0
2019-04-04T19:38:54.655Z,0
2019-04-04T19:42:22.493Z,0
2019-04-04T19:45:52.233Z,0
2019-04-04T19:49:20.147Z,0
2019-04-04T19:52:49.236Z,0
2019-04-04T19:56:16.952Z,0
2019-04-04T19:59:45.820Z,0
2019-04-04T20:03:13.680Z,0
2019-04-04T20:06:41.555Z,0
2019-04-04T20:10:09.441Z,0
2019-04-04T20:13:37.275Z,0
2019-04-04T20:17:06.130Z,0
2019-04-04T20:20:33.983Z,0
2019-04-04T20:24:02.844Z,0
2019-04-04T20:27:30.699Z,0
2019-04-04T20:30:58.557Z,0
2019-04-04T20:34:26.389Z,0
2019-04-04T20:37:54.249Z,0
2019-04-04T20:41:22.098Z,0
2019-04-04T20:44:50.930Z,0
2019-04-04T20:48:18.786Z,0
2019-04-04T20:51:46.645Z,0
2019-04-04T20:55:14.483Z,0
2019-04-04T20:58:42.346Z,0
2019-04-04T21:02:10.204Z,0
2019-04-04T21:05:38.058Z,0
2019-04-04T21:09:05.935Z,0
2019-04-04T21:12:34.778Z,0
2019-04-04T21:16:02.675Z,0
2019-04-04T21:19:31.498Z,0
2019-04-04T21:22:59.355Z,0
2019-04-04T21:26:27.202Z,0
2019-04-04T21:29:55.064Z,0
2019-04-04T21:33:22.916Z,0
2019-04-04T21:36:50.766Z,0
2019-04-04T21:40:19.491Z,0
2019-04-04T21:43:47.348Z,0
2019-04-04T21:47:15.214Z,0
2019-04-04T21:50:43.073Z,0
2019-04-04T21:54:10.930Z,0
2019-04-04T21:57:38.787Z,0
